Terminal Aerodrome Forecast
Issued by NWS Rapid City, SD

Home | Current Version | Previous Version | Text Only | Print | Product List | Glossary On
Versions: 1 2 3 4 5 6 7 8 9 10 11 12 13 14 15 16 17 18 19 20 21 22 23
000
FTUS43 KUNR 261120
TAFRAP
TAF
KRAP 261120Z 2612/2712 34011KT P6SM -SHRA OVC007
     FM261500 09010KT 5SM -SHRA BR SCT004 OVC007
     FM262000 14013KT P6SM -SHRA SCT025 OVC050=

USA.gov is the U.S. government's official web portal to all federal, state and local government web resources and services.